Time;durP1;ratioP1;P1;durP2;ratioP2;P2;SDS_P1;SDS_P2;PMS_P1;PMS_P2;Temp;Humidity;BMP_temperature;BMP_pressure;BME280_temperature;BME280_humidity;BME280_pressure;Samples;Min_cycle;Max_cycle;Signal;HPM_P1;HPM_P2
2022/06/24 00:00:42;;;;;;;1.88;1.00;;;27.80;93.40;;;;;;5062703;28;19928;-62
2022/06/24 00:03:17;;;;;;;0.20;0.20;;;27.80;93.20;;;;;;5063088;28;20036;-59
2022/06/24 00:05:47;;;;;;;0.45;0.40;;;27.80;93.10;;;;;;5067446;28;20411;-57
2022/06/24 00:08:15;;;;;;;0.20;0.20;;;27.70;92.90;;;;;;5033381;28;20071;-56
2022/06/24 00:10:43;;;;;;;0.43;0.40;;;27.80;92.80;;;;;;5046507;28;20041;-60
2022/06/24 00:13:10;;;;;;;0.20;0.20;;;27.80;92.10;;;;;;5064669;28;20052;-59
2022/06/24 00:15:38;;;;;;;0.57;0.57;;;27.80;91.90;;;;;;5064445;28;20111;-58
2022/06/24 00:18:16;;;;;;;;;;;27.80;91.80;;;;;;5062074;28;20033;-57
2022/06/24 00:20:47;;;;;;;0.30;0.30;;;27.70;91.80;;;;;;5058665;28;19924;-59
2022/06/24 00:23:22;;;;;;;0.57;0.47;;;27.70;91.90;;;;;;5062223;28;20044;-59
2022/06/24 00:25:50;;;;;;;0.50;0.50;;;27.70;91.90;;;;;;5050076;28;20040;-58
2022/06/24 00:28:23;;;;;;;0.30;0.30;;;27.60;91.80;;;;;;5065553;28;20551;-59
2022/06/24 00:30:53;;;;;;;0.20;0.20;;;27.60;91.80;;;;;;5065768;28;20056;-59
2022/06/24 00:33:23;;;;;;;0.98;0.65;;;27.60;92.00;;;;;;5067066;28;20060;-61
2022/06/24 00:35:52;;;;;;;0.75;0.73;;;27.60;92.10;;;;;;5067005;28;20605;-61
2022/06/24 00:38:29;;;;;;;2.30;1.05;;;27.60;92.20;;;;;;5070897;28;20052;-60
2022/06/24 00:41:07;;;;;;;0.45;0.45;;;27.60;92.10;;;;;;5077928;28;20463;-61
2022/06/24 00:43:35;;;;;;;0.65;0.65;;;27.60;92.30;;;;;;5076785;28;20066;-59
2022/06/24 00:46:24;;;;;;;0.80;0.80;;;27.60;92.20;;;;;;5072274;28;20033;-57
2022/06/24 00:48:59;;;;;;;0.57;0.57;;;27.60;92.00;;;;;;5064839;28;20415;-60
2022/06/24 00:51:36;;;;;;;0.40;0.40;;;27.60;91.70;;;;;;5047818;28;20051;-60
2022/06/24 00:54:09;;;;;;;0.20;0.20;;;27.60;91.80;;;;;;5061504;28;20048;-58
2022/06/24 00:56:37;;;;;;;0.20;0.20;;;27.60;92.00;;;;;;5072136;28;20044;-58
2022/06/24 00:59:11;;;;;;;0.75;0.70;;;27.50;92.10;;;;;;5071390;28;20041;-61
2022/06/24 01:01:41;;;;;;;0.73;0.57;;;27.50;92.10;;;;;;5067796;28;20041;-61
2022/06/24 01:04:10;;;;;;;0.43;0.40;;;27.50;92.10;;;;;;5054723;28;20052;-62
2022/06/24 01:06:42;;;;;;;2.13;0.90;;;27.50;92.10;;;;;;5087668;28;20067;-58
2022/06/24 01:09:10;;;;;;;1.23;0.52;;;27.50;92.10;;;;;;5055348;28;20087;-55
2022/06/24 01:11:42;;;;;;;0.20;0.20;;;27.50;92.20;;;;;;5064468;28;20052;-60
2022/06/24 01:14:11;;;;;;;0.40;0.40;;;27.50;92.30;;;;;;5068251;28;20056;-59
2022/06/24 01:16:39;;;;;;;0.47;0.47;;;27.40;92.20;;;;;;5060431;28;20052;-57
2022/06/24 01:19:12;;;;;;;0.57;0.57;;;27.50;92.30;;;;;;5060734;28;20419;-58
2022/06/24 01:21:44;;;;;;;0.30;0.30;;;27.40;92.20;;;;;;5064756;28;20052;-57
2022/06/24 01:24:22;;;;;;;0.22;0.22;;;27.40;92.30;;;;;;5064778;28;20040;-57
2022/06/24 01:26:52;;;;;;;0.30;0.30;;;27.40;92.30;;;;;;5066472;28;20044;-59
2022/06/24 01:29:21;;;;;;;0.40;0.40;;;27.40;92.30;;;;;;5065454;28;20048;-61
2022/06/24 01:31:49;;;;;;;0.65;0.57;;;27.40;92.30;;;;;;5066306;28;20165;-59
2022/06/24 01:34:18;;;;;;;0.45;0.45;;;27.40;92.40;;;;;;5068351;28;20355;-58
2022/06/24 01:36:46;;;;;;;0.20;0.20;;;27.40;92.50;;;;;;5058477;28;20043;-59
2022/06/24 01:39:13;;;;;;;0.52;0.52;;;27.40;92.50;;;;;;5062207;28;20044;-59
2022/06/24 01:41:41;;;;;;;0.40;0.40;;;27.30;92.50;;;;;;5055298;28;20040;-59
2022/06/24 01:44:08;;;;;;;0.20;0.20;;;27.30;92.60;;;;;;5066533;28;20060;-59
2022/06/24 01:46:35;;;;;;;;;;;27.30;92.70;;;;;;5054639;28;20041;-59
2022/06/24 01:49:03;;;;;;;0.20;0.20;;;27.30;92.80;;;;;;5071319;28;19924;-61
2022/06/24 01:51:33;;;;;;;0.30;0.30;;;27.30;92.90;;;;;;5067560;28;20044;-59
2022/06/24 01:54:01;;;;;;;0.40;0.40;;;27.30;92.90;;;;;;5060271;28;20059;-60
2022/06/24 01:56:28;;;;;;;30.70;1.27;;;27.30;92.90;;;;;;5066002;28;20060;-59
2022/06/24 01:58:56;;;;;;;1.70;0.75;;;27.30;92.90;;;;;;5063739;28;20056;-59
2022/06/24 02:01:23;;;;;;;0.20;0.20;;;27.30;93.10;;;;;;5061629;28;20045;-59
2022/06/24 02:03:50;;;;;;;;;;;27.30;92.90;;;;;;5060626;28;20292;-58
2022/06/24 02:06:18;;;;;;;2.63;0.75;;;27.30;92.90;;;;;;5062339;28;19932;-59
2022/06/24 02:08:46;;;;;;;1.95;0.55;;;27.30;92.80;;;;;;5067706;28;20052;-58
2022/06/24 02:14:03;;;;;;;0.40;0.40;;;27.30;92.50;;;;;;5055370;28;20435;-61
2022/06/24 02:16:31;;;;;;;1.17;0.85;;;27.30;92.70;;;;;;5053764;28;20453;-55
2022/06/24 02:18:59;;;;;;;1.08;0.55;;;27.20;92.90;;;;;;5047067;28;20052;-60
2022/06/24 02:21:27;;;;;;;0.68;0.50;;;27.20;92.90;;;;;;5065090;28;20051;-58
2022/06/24 02:23:54;;;;;;;0.75;0.60;;;27.20;92.90;;;;;;5071216;28;20158;-57
2022/06/24 02:26:22;;;;;;;0.20;0.20;;;27.20;92.90;;;;;;5058289;28;20355;-56
2022/06/24 02:28:49;;;;;;;;;;;27.20;93.00;;;;;;5050518;28;20059;-60
2022/06/24 02:31:17;;;;;;;0.47;0.47;;;27.10;93.10;;;;;;5055633;28;19929;-59
2022/06/24 02:33:46;;;;;;;4.47;1.80;;;27.10;93.20;;;;;;5077386;28;20441;-60
2022/06/24 02:36:14;;;;;;;0.50;0.50;;;27.00;93.20;;;;;;5062666;28;20048;-60
2022/06/24 02:38:41;;;;;;;0.70;0.70;;;27.00;93.40;;;;;;5059428;28;20412;-60
2022/06/24 02:41:13;;;;;;;1.52;0.85;;;27.00;93.40;;;;;;5059160;28;20057;-61
2022/06/24 02:43:41;;;;;;;0.25;0.25;;;27.00;93.60;;;;;;5052651;28;20427;-61
2022/06/24 02:46:12;;;;;;;1.35;0.95;;;27.00;93.60;;;;;;5056051;28;20049;-60
2022/06/24 02:48:41;;;;;;;0.55;0.50;;;27.00;93.70;;;;;;5052231;28;20051;-59
2022/06/24 02:51:13;;;;;;;0.28;0.28;;;27.00;93.70;;;;;;5063796;28;20091;-58
2022/06/24 02:53:43;;;;;;;0.40;0.40;;;27.00;93.80;;;;;;5048113;28;20052;-59
2022/06/24 02:56:13;;;;;;;0.35;0.35;;;27.00;93.80;;;;;;5050839;28;20057;-59
2022/06/24 02:58:42;;;;;;;0.63;0.63;;;27.00;93.90;;;;;;5047370;28;20044;-61
2022/06/24 03:01:10;;;;;;;0.68;0.68;;;26.90;93.80;;;;;;5056241;28;20049;-59
2022/06/24 03:03:38;;;;;;;1.00;0.77;;;27.00;94.00;;;;;;5030683;28;20045;-61
2022/06/24 03:06:06;;;;;;;0.30;0.30;;;26.90;93.90;;;;;;5051946;28;20071;-57
2022/06/24 03:08:34;;;;;;;0.98;0.68;;;26.90;94.00;;;;;;5049139;28;20129;-58
2022/06/24 03:11:01;;;;;;;0.45;0.45;;;26.90;94.10;;;;;;5065617;28;20048;-58
2022/06/24 03:13:29;;;;;;;1.13;0.43;;;26.90;94.00;;;;;;5068094;28;20120;-59
2022/06/24 03:15:56;;;;;;;0.75;0.60;;;26.90;94.10;;;;;;5052120;28;20048;-59
2022/06/24 03:18:24;;;;;;;0.20;0.20;;;26.90;94.10;;;;;;5054620;28;20423;-55
2022/06/24 03:20:51;;;;;;;0.35;0.35;;;26.90;94.20;;;;;;5065997;28;20055;-58
2022/06/24 03:23:19;;;;;;;0.40;0.40;;;26.90;94.20;;;;;;5048207;28;20048;-58
2022/06/24 03:25:46;;;;;;;0.30;0.30;;;26.90;94.20;;;;;;5061676;28;20045;-60
2022/06/24 03:28:14;;;;;;;;;;;26.90;94.30;;;;;;5052029;28;20063;-57
2022/06/24 03:30:41;;;;;;;0.30;0.30;;;26.90;94.30;;;;;;5053567;28;20395;-58
2022/06/24 03:33:08;;;;;;;;;;;26.90;94.30;;;;;;5057202;28;20067;-59
2022/06/24 03:35:36;;;;;;;0.80;0.80;;;26.80;94.30;;;;;;5042157;28;19920;-59
2022/06/24 03:38:03;;;;;;;2.72;1.40;;;26.90;94.40;;;;;;5038131;28;20069;-59
2022/06/24 03:40:30;;;;;;;;;;;26.90;94.40;;;;;;5052205;28;20048;-59
2022/06/24 03:42:58;;;;;;;2.78;1.20;;;26.80;94.40;;;;;;5048435;28;19925;-58
2022/06/24 03:45:25;;;;;;;;;;;26.80;94.70;;;;;;5062626;28;20050;-57
2022/06/24 03:47:52;;;;;;;1.55;0.55;;;26.80;94.50;;;;;;5048346;28;19925;-57
2022/06/24 03:50:19;;;;;;;2.28;1.60;;;26.80;94.50;;;;;;5055367;28;20056;-59
2022/06/24 03:52:47;;;;;;;0.25;0.25;;;26.80;94.60;;;;;;5048078;28;20049;-58
2022/06/24 03:55:14;;;;;;;0.30;0.30;;;26.90;94.50;;;;;;5054915;28;20052;-57
2022/06/24 03:57:42;;;;;;;0.50;0.50;;;27.00;94.40;;;;;;5065419;28;20040;-57
2022/06/24 04:00:09;;;;;;;0.20;0.20;;;27.00;94.30;;;;;;5049728;28;20139;-60
2022/06/24 04:02:40;;;;;;;0.40;0.40;;;27.00;94.20;;;;;;5063423;28;20041;-59
2022/06/24 04:05:14;;;;;;;0.30;0.30;;;27.10;94.20;;;;;;5048451;28;20049;-58
2022/06/24 04:07:42;;;;;;;0.57;0.57;;;27.10;94.10;;;;;;5057552;28;20037;-58
2022/06/24 04:10:09;;;;;;;0.20;0.20;;;27.20;94.10;;;;;;5055630;28;20083;-58
2022/06/24 04:12:36;;;;;;;0.32;0.32;;;27.20;94.10;;;;;;5047284;28;20053;-58
2022/06/24 04:15:13;;;;;;;1.35;0.95;;;27.30;94.00;;;;;;5060224;28;20040;-57
2022/06/24 04:17:42;;;;;;;0.55;0.43;;;27.30;94.00;;;;;;5062900;28;20049;-57
2022/06/24 04:20:11;;;;;;;0.40;0.40;;;27.30;94.00;;;;;;5056885;28;20114;-57
2022/06/24 04:22:38;;;;;;;2.65;1.10;;;27.30;94.00;;;;;;5045019;28;20100;-56
2022/06/24 04:25:06;;;;;;;0.30;0.30;;;27.30;94.00;;;;;;5056026;28;20597;-55
2022/06/24 04:27:34;;;;;;;4.78;1.42;;;27.30;94.00;;;;;;5030199;28;20057;-56
2022/06/24 04:30:04;;;;;;;2.28;0.90;;;27.30;94.00;;;;;;5058220;28;20518;-56
2022/06/24 04:32:32;;;;;;;0.45;0.40;;;27.30;94.00;;;;;;5057656;28;20044;-59
2022/06/24 04:35:00;;;;;;;0.20;0.20;;;27.30;93.90;;;;;;5069238;28;20049;-59
2022/06/24 04:37:28;;;;;;;0.35;0.35;;;27.30;94.00;;;;;;5057388;28;20847;-57
2022/06/24 04:39:58;;;;;;;1.38;0.35;;;27.30;94.00;;;;;;5051348;28;20052;-57
2022/06/24 04:42:25;;;;;;;0.25;0.25;;;27.30;94.00;;;;;;5060790;28;20494;-58
2022/06/24 04:44:53;;;;;;;0.75;0.63;;;27.30;93.90;;;;;;5065322;28;20049;-59
2022/06/24 04:47:20;;;;;;;;;;;27.30;94.00;;;;;;5055502;28;20041;-57
2022/06/24 04:49:47;;;;;;;0.50;0.50;;;27.40;94.10;;;;;;5070980;28;20027;-60
2022/06/24 04:52:18;;;;;;;0.20;0.20;;;27.40;94.10;;;;;;5063238;28;20064;-58
2022/06/24 04:54:45;;;;;;;2.95;0.85;;;27.30;94.00;;;;;;5074227;28;20060;-56
2022/06/24 04:57:13;;;;;;;1.45;0.57;;;27.30;94.20;;;;;;5059967;28;20060;-56
2022/06/24 04:59:40;;;;;;;;;;;27.30;94.30;;;;;;5058183;28;20412;-59
2022/06/24 05:02:08;;;;;;;0.38;0.38;;;27.30;94.20;;;;;;5067414;28;19924;-58
2022/06/24 05:04:36;;;;;;;0.30;0.30;;;27.30;94.20;;;;;;5059785;28;20047;-55
2022/06/24 05:07:04;;;;;;;0.20;0.20;;;27.30;94.10;;;;;;5056741;28;20061;-57
2022/06/24 05:09:31;;;;;;;1.40;0.75;;;27.30;94.30;;;;;;5056518;28;20060;-59
2022/06/24 05:11:59;;;;;;;;;;;27.30;94.30;;;;;;5070662;28;20059;-57
2022/06/24 05:14:27;;;;;;;0.30;0.30;;;27.30;94.60;;;;;;5064591;28;20382;-59
2022/06/24 05:16:55;;;;;;;1.85;1.10;;;27.30;94.20;;;;;;5057328;28;20059;-59
2022/06/24 05:19:23;;;;;;;0.65;0.47;;;27.30;94.20;;;;;;5059362;28;20395;-56
2022/06/24 05:21:50;;;;;;;0.40;0.40;;;27.20;94.10;;;;;;5049600;28;20111;-54
2022/06/24 05:24:18;;;;;;;0.45;0.45;;;27.20;94.20;;;;;;5058807;28;20056;-58
2022/06/24 05:26:45;;;;;;;;;;;27.20;94.20;;;;;;5057010;28;20048;-56
2022/06/24 05:29:12;;;;;;;1.27;0.68;;;27.20;94.10;;;;;;5049752;28;20388;-53
2022/06/24 05:31:40;;;;;;;0.32;0.32;;;27.20;94.10;;;;;;5059711;28;20372;-56
2022/06/24 05:34:08;;;;;;;0.50;0.50;;;27.20;94.10;;;;;;5062025;28;20057;-61
2022/06/24 05:36:36;;;;;;;3.95;1.55;;;27.20;94.10;;;;;;5049697;28;20053;-57
2022/06/24 05:39:05;;;;;;;1.17;0.55;;;27.20;94.10;;;;;;5053735;28;20796;-55
2022/06/24 05:41:33;;;;;;;1.27;1.05;;;27.20;94.10;;;;;;5067226;28;20047;-59
2022/06/24 05:44:01;;;;;;;6.22;0.93;;;27.20;94.10;;;;;;5066237;28;20044;-56
2022/06/24 05:46:28;;;;;;;0.52;0.52;;;27.20;94.00;;;;;;5054210;28;20053;-57
2022/06/24 05:48:57;;;;;;;1.25;0.85;;;27.20;93.90;;;;;;5061680;28;20061;-56
2022/06/24 05:51:24;;;;;;;0.60;0.60;;;27.10;93.80;;;;;;5059209;28;20369;-57
2022/06/24 05:56:37;;;;;;;2.05;1.13;;;27.00;93.90;;;;;;5068335;28;19943;-58
2022/06/24 05:59:13;;;;;;;2.10;1.38;;;27.00;94.10;;;;;;5053312;28;20040;-62
2022/06/24 06:01:41;;;;;;;1.75;0.90;;;26.30;94.70;;;;;;5069279;28;20052;-63
2022/06/24 06:04:09;;;;;;;1.05;0.60;;;26.30;95.10;;;;;;5060713;28;20067;-57
2022/06/24 06:06:36;;;;;;;;;;;26.10;95.30;;;;;;5056624;28;20053;-61
2022/06/24 06:09:03;;;;;;;0.52;0.50;;;26.00;95.30;;;;;;5055119;28;19932;-57
2022/06/24 06:11:35;;;;;;;0.35;0.35;;;25.70;95.70;;;;;;5074684;28;20423;-57
2022/06/24 06:14:03;;;;;;;2.25;0.98;;;25.60;96.40;;;;;;5073399;22;20077;-58
2022/06/24 06:16:31;;;;;;;0.68;0.68;;;25.80;96.30;;;;;;5055236;28;20044;-60
2022/06/24 06:18:58;;;;;;;0.70;0.70;;;26.00;95.90;;;;;;5060116;28;20040;-58
2022/06/24 06:21:25;;;;;;;0.68;0.68;;;26.20;95.50;;;;;;5062077;28;20380;-58
2022/06/24 06:23:56;;;;;;;0.35;0.35;;;26.30;95.40;;;;;;5054524;28;20576;-56
2022/06/24 06:26:23;;;;;;;1.00;0.70;;;26.30;95.10;;;;;;5053780;28;20036;-55
2022/06/24 06:28:50;;;;;;;0.40;0.40;;;26.40;95.10;;;;;;5051209;28;20511;-58
2022/06/24 06:31:18;;;;;;;3.10;1.63;;;26.40;95.00;;;;;;5062243;28;20059;-59
2022/06/24 06:33:45;;;;;;;6.32;3.30;;;26.40;94.90;;;;;;5051913;28;20053;-56
2022/06/24 06:36:14;;;;;;;2.55;1.27;;;26.40;94.90;;;;;;5055902;28;20436;-59
2022/06/24 06:38:41;;;;;;;4.07;1.42;;;26.50;94.90;;;;;;5054866;28;20057;-61
2022/06/24 06:41:14;;;;;;;4.57;1.65;;;26.50;94.80;;;;;;5042441;28;20391;-58
2022/06/24 06:43:42;;;;;;;1.65;1.27;;;26.50;94.80;;;;;;5040988;28;20044;-60
2022/06/24 06:46:10;;;;;;;0.75;0.75;;;26.60;94.80;;;;;;5043177;28;20047;-57
2022/06/24 06:48:39;;;;;;;1.85;1.02;;;26.60;94.60;;;;;;5044298;28;20045;-61
2022/06/24 06:51:06;;;;;;;0.52;0.52;;;26.50;94.40;;;;;;5053902;28;20539;-58
2022/06/24 06:53:34;;;;;;;0.75;0.75;;;26.40;94.50;;;;;;5056568;28;20051;-59
2022/06/24 06:56:02;;;;;;;0.57;0.57;;;26.40;94.50;;;;;;5050217;28;20037;-60
2022/06/24 06:58:29;;;;;;;0.30;0.30;;;26.30;94.40;;;;;;5055830;28;20419;-59
2022/06/24 07:00:57;;;;;;;0.50;0.50;;;26.30;94.60;;;;;;5057386;28;20541;-58
2022/06/24 07:03:24;;;;;;;1.08;0.95;;;26.20;94.60;;;;;;5057320;28;20398;-61
2022/06/24 07:05:51;;;;;;;0.63;0.63;;;26.20;94.70;;;;;;5052109;28;20335;-58
2022/06/24 07:08:19;;;;;;;2.42;1.15;;;26.20;94.60;;;;;;5061094;28;20407;-58
2022/06/24 07:10:46;;;;;;;;;;;26.20;94.50;;;;;;5057546;28;20044;-59
2022/06/24 07:13:14;;;;;;;0.47;0.47;;;26.20;94.40;;;;;;5054342;28;20376;-57
2022/06/24 07:15:42;;;;;;;0.90;0.77;;;26.10;94.30;;;;;;5055893;28;20048;-60
2022/06/24 07:18:09;;;;;;;0.30;0.30;;;26.10;94.30;;;;;;5055503;28;20040;-58
2022/06/24 07:20:37;;;;;;;1.05;0.85;;;26.10;94.10;;;;;;5054076;28;20397;-61
2022/06/24 07:23:04;;;;;;;;;;;26.10;94.20;;;;;;5050556;28;20051;-62
2022/06/24 07:25:35;;;;;;;1.20;0.88;;;26.10;94.20;;;;;;5049606;28;20399;-59
2022/06/24 07:28:04;;;;;;;0.47;0.47;;;26.10;94.00;;;;;;5046771;28;20400;-61
2022/06/24 07:30:32;;;;;;;1.30;0.93;;;26.20;94.20;;;;;;5049503;28;20037;-61
2022/06/24 07:32:59;;;;;;;;;;;26.20;94.10;;;;;;5059789;28;20407;-62
2022/06/24 07:35:26;;;;;;;0.65;0.65;;;26.20;93.80;;;;;;5063465;28;19924;-59
2022/06/24 07:38:14;;;;;;;2.45;1.27;;;26.20;93.70;;;;;;5057463;28;20050;-60
2022/06/24 07:40:41;;;;;;;1.75;0.73;;;26.10;94.10;;;;;;5061792;28;20036;-59
2022/06/24 07:43:09;;;;;;;;;;;26.20;93.80;;;;;;5050414;28;20045;-57
2022/06/24 07:45:36;;;;;;;0.50;0.50;;;26.20;93.70;;;;;;5057067;28;19925;-59
2022/06/24 07:48:04;;;;;;;0.40;0.40;;;26.20;93.80;;;;;;5050265;28;20053;-60
2022/06/24 07:50:32;;;;;;;0.47;0.47;;;26.30;93.70;;;;;;5052997;28;20101;-61
2022/06/24 07:52:59;;;;;;;1.70;1.10;;;26.30;93.60;;;;;;5053178;28;20048;-67
2022/06/24 07:58:12;;;;;;;2.83;1.52;;;26.10;93.30;;;;;;5059325;28;20048;-58
2022/06/24 08:00:40;;;;;;;0.38;0.38;;;26.10;93.50;;;;;;5057006;28;20420;-59
2022/06/24 08:03:07;;;;;;;0.40;0.40;;;26.00;93.40;;;;;;5053737;28;20052;-60
2022/06/24 08:05:35;;;;;;;;;;;26.00;93.40;;;;;;5048933;28;20033;-59
2022/06/24 08:08:02;;;;;;;1.42;0.50;;;25.90;93.40;;;;;;5059378;28;20375;-59
2022/06/24 08:10:30;;;;;;;;;;;25.90;93.40;;;;;;5064751;28;20392;-57
2022/06/24 08:12:57;;;;;;;;;;;25.90;93.30;;;;;;5061109;28;19932;-56
2022/06/24 08:15:24;;;;;;;0.73;0.73;;;25.90;93.30;;;;;;5062568;28;19939;-61
2022/06/24 08:17:52;;;;;;;2.13;1.50;;;25.80;93.60;;;;;;5060738;28;20048;-58
2022/06/24 08:20:19;;;;;;;0.30;0.30;;;25.80;93.40;;;;;;5057417;28;20040;-60
2022/06/24 08:22:47;;;;;;;0.52;0.52;;;25.80;93.40;;;;;;5059012;28;20380;-59
2022/06/24 08:25:14;;;;;;;1.40;1.30;;;25.80;93.50;;;;;;5047337;28;20040;-60
2022/06/24 08:27:51;;;;;;;10.95;1.38;;;25.80;93.50;;;;;;5055990;28;20060;-61
2022/06/24 08:30:19;;;;;;;0.65;0.65;;;25.80;93.60;;;;;;5052957;28;20120;-59
2022/06/24 08:32:47;;;;;;;0.40;0.40;;;25.70;93.70;;;;;;5058843;28;20629;-57
2022/06/24 08:35:14;;;;;;;20.85;2.85;;;25.70;93.60;;;;;;5051203;28;20518;-61
2022/06/24 08:37:55;;;;;;;2.13;1.35;;;25.70;93.70;;;;;;5050402;28;20133;-59
2022/06/24 08:40:25;;;;;;;0.60;0.60;;;25.70;93.40;;;;;;5063325;28;20044;-59
2022/06/24 08:42:54;;;;;;;1.90;0.70;;;25.70;93.40;;;;;;5057595;28;20393;-65
2022/06/24 08:45:23;;;;;;;2.55;0.68;;;25.70;93.60;;;;;;5057433;28;20060;-58
2022/06/24 08:47:51;;;;;;;0.98;0.90;;;25.70;93.60;;;;;;5055778;28;20052;-61
2022/06/24 08:50:19;;;;;;;2.72;1.67;;;25.90;93.70;;;;;;5049687;28;20473;-62
2022/06/24 08:52:49;;;;;;;0.30;0.30;;;26.10;93.70;;;;;;5062836;28;20064;-60
2022/06/24 08:55:22;;;;;;;3.67;1.65;;;26.20;93.60;;;;;;5046950;28;20044;-63
2022/06/24 08:57:50;;;;;;;2.47;0.80;;;26.30;93.20;;;;;;5053228;28;20056;-62
2022/06/24 09:00:19;;;;;;;2.50;0.70;;;26.30;93.20;;;;;;5054821;28;20051;-63
2022/06/24 09:02:47;;;;;;;0.60;0.60;;;26.40;93.10;;;;;;5052434;28;20491;-60
2022/06/24 09:05:15;;;;;;;0.98;0.90;;;26.40;93.10;;;;;;5051822;28;20064;-59
2022/06/24 09:07:44;;;;;;;0.68;0.65;;;26.40;93.20;;;;;;5056447;28;20036;-68
2022/06/24 09:10:13;;;;;;;0.38;0.38;;;26.40;93.20;;;;;;5051822;28;20064;-59
2022/06/24 09:12:46;;;;;;;0.50;0.50;;;26.50;93.20;;;;;;5049718;28;20369;-56
2022/06/24 09:15:14;;;;;;;1.38;0.55;;;26.50;93.30;;;;;;5066236;28;20041;-62
2022/06/24 09:17:43;;;;;;;1.80;0.82;;;26.50;93.20;;;;;;5060115;28;20048;-61
2022/06/24 09:20:12;;;;;;;0.32;0.32;;;26.50;93.30;;;;;;5057875;28;20045;-59
2022/06/24 09:23:10;;;;;;;1.27;1.00;;;26.50;93.20;;;;;;5057725;28;20048;-60
2022/06/24 09:26:00;;;;;;;1.10;0.95;;;26.50;93.20;;;;;;5061765;28;20399;-60
2022/06/24 09:28:31;;;;;;;0.80;0.65;;;26.60;93.00;;;;;;5051836;28;20523;-57
2022/06/24 09:31:08;;;;;;;0.20;0.20;;;26.60;93.00;;;;;;5056376;28;20504;-60
2022/06/24 09:33:41;;;;;;;2.00;1.13;;;26.60;93.00;;;;;;5060958;28;20068;-59
2022/06/24 09:36:10;;;;;;;0.55;0.55;;;26.60;93.00;;;;;;5062567;28;20040;-60
2022/06/24 09:39:05;;;;;;;0.40;0.40;;;26.60;93.00;;;;;;5072863;28;20053;-61
2022/06/24 09:41:47;;;;;;;0.63;0.63;;;26.60;93.00;;;;;;5058812;28;20382;-58
2022/06/24 09:44:17;;;;;;;1.17;0.70;;;26.70;93.20;;;;;;5052193;28;20067;-56
2022/06/24 09:46:45;;;;;;;0.77;0.60;;;26.70;93.10;;;;;;5060369;28;20056;-59
2022/06/24 09:49:15;;;;;;;0.45;0.45;;;26.70;93.10;;;;;;5053540;28;20045;-61
2022/06/24 09:51:46;;;;;;;0.73;0.73;;;26.70;93.30;;;;;;5048103;28;20412;-60
2022/06/24 09:54:17;;;;;;;1.08;0.47;;;26.70;93.30;;;;;;5060816;28;20488;-61
2022/06/24 09:56:47;;;;;;;0.50;0.50;;;26.70;93.20;;;;;;5057075;28;20049;-60
2022/06/24 10:02:15;;;;;;;1.33;0.55;;;26.80;93.10;;;;;;5057262;28;20051;-55
2022/06/24 10:04:51;;;;;;;0.50;0.50;;;26.80;93.00;;;;;;5057733;28;20053;-56
2022/06/24 10:07:22;;;;;;;0.77;0.77;;;26.80;93.10;;;;;;5073035;28;20048;-53
2022/06/24 10:09:52;;;;;;;1.10;0.73;;;26.80;93.20;;;;;;5067777;28;20076;-55
2022/06/24 10:12:21;;;;;;;0.20;0.20;;;26.80;93.10;;;;;;5061156;28;20061;-52
2022/06/24 10:14:50;;;;;;;0.93;0.65;;;26.90;93.10;;;;;;5055981;28;20500;-56
2022/06/24 10:17:19;;;;;;;0.50;0.50;;;26.90;93.00;;;;;;5050772;28;20056;-59
2022/06/24 10:19:47;;;;;;;0.85;0.85;;;26.80;92.90;;;;;;5060567;28;20416;-60
2022/06/24 10:22:36;;;;;;;0.47;0.47;;;26.90;92.80;;;;;;5051462;28;20479;-60
2022/06/24 10:25:04;;;;;;;0.50;0.50;;;26.90;93.00;;;;;;5052741;28;20060;-55
2022/06/24 10:27:56;;;;;;;0.50;0.50;;;26.90;93.20;;;;;;5048958;28;20319;-54
2022/06/24 10:30:55;;;;;;;0.20;0.20;;;26.90;93.60;;;;;;5061546;28;20443;-55
2022/06/24 10:33:26;;;;;;;0.50;0.50;;;26.90;93.50;;;;;;5057005;28;20044;-55
2022/06/24 10:36:00;;;;;;;0.40;0.40;;;26.90;93.30;;;;;;5057779;28;20393;-55
2022/06/24 10:38:39;;;;;;;1.83;0.95;;;26.90;92.90;;;;;;5055953;28;20041;-56
2022/06/24 10:41:10;;;;;;;0.40;0.40;;;26.90;93.50;;;;;;5054952;28;20365;-57
2022/06/24 10:43:42;;;;;;;1.45;0.82;;;26.90;93.30;;;;;;5057790;28;20693;-59
2022/06/24 10:46:12;;;;;;;0.30;0.30;;;26.90;93.00;;;;;;5055418;28;20049;-57
2022/06/24 10:48:52;;;;;;;0.80;0.77;;;26.90;92.90;;;;;;5052572;28;20055;-61
2022/06/24 10:51:23;;;;;;;0.95;0.63;;;26.80;92.80;;;;;;5056725;28;20052;-60
2022/06/24 10:54:03;;;;;;;0.47;0.47;;;26.80;92.70;;;;;;5059764;28;20048;-58
2022/06/24 10:56:42;;;;;;;2.17;1.38;;;26.80;92.40;;;;;;5055241;28;20048;-61
2022/06/24 10:59:16;;;;;;;0.43;0.38;;;26.80;92.30;;;;;;5064610;28;20048;-58
2022/06/24 11:01:45;;;;;;;1.95;1.30;;;26.90;92.40;;;;;;5047708;28;20064;-59
2022/06/24 11:04:23;;;;;;;0.32;0.32;;;26.90;92.60;;;;;;5052746;28;20091;-56
2022/06/24 11:07:11;;;;;;;1.88;1.15;;;26.90;92.30;;;;;;5056166;28;20051;-58
2022/06/24 11:09:39;;;;;;;0.30;0.30;;;26.90;92.20;;;;;;5049968;28;20505;-59
2022/06/24 11:12:26;;;;;;;;;;;26.90;92.30;;;;;;5060715;28;20049;-56
2022/06/24 11:14:54;;;;;;;0.43;0.43;;;26.80;92.20;;;;;;5050329;28;20380;-54
2022/06/24 11:17:25;;;;;;;;;;;26.90;92.20;;;;;;5055916;28;20051;-57
2022/06/24 11:19:53;;;;;;;0.40;0.40;;;26.80;92.10;;;;;;5065369;28;19936;-59
2022/06/24 11:22:28;;;;;;;0.30;0.30;;;26.80;92.00;;;;;;5059053;28;20446;-59
2022/06/24 11:24:58;;;;;;;2.13;0.98;;;26.80;92.00;;;;;;5056388;28;20044;-57
2022/06/24 11:27:36;;;;;;;0.70;0.70;;;26.90;91.90;;;;;;5049350;28;20040;-56
2022/06/24 11:30:05;;;;;;;1.30;0.80;;;26.90;91.90;;;;;;5053117;28;20053;-56
2022/06/24 11:32:56;;;;;;;0.90;0.73;;;26.90;92.10;;;;;;5074111;28;20756;-59
2022/06/24 11:35:24;;;;;;;0.65;0.60;;;26.90;90.50;;;;;;5050889;28;20052;-54
2022/06/24 11:37:56;;;;;;;0.25;0.25;;;26.80;90.20;;;;;;5059279;28;20049;-55
2022/06/24 11:40:28;;;;;;;0.40;0.40;;;26.60;88.80;;;;;;5052847;28;20397;-58
2022/06/24 11:43:02;;;;;;;0.30;0.30;;;26.50;88.40;;;;;;5060612;28;20041;-57
2022/06/24 11:45:37;;;;;;;0.40;0.40;;;26.50;89.10;;;;;;5057712;28;20048;-58
2022/06/24 11:48:05;;;;;;;0.85;0.85;;;26.50;88.80;;;;;;5053091;28;20041;-58
2022/06/24 11:50:33;;;;;;;0.28;0.28;;;26.50;89.10;;;;;;5062708;28;20045;-60
2022/06/24 11:53:02;;;;;;;0.30;0.30;;;26.50;87.50;;;;;;5046834;28;20049;-56
2022/06/24 11:55:35;;;;;;;0.30;0.30;;;26.50;87.40;;;;;;5052522;28;20055;-63
2022/06/24 11:58:11;;;;;;;1.75;0.95;;;26.40;87.50;;;;;;5058545;28;20060;-61
2022/06/24 12:00:40;;;;;;;0.60;0.60;;;26.50;87.10;;;;;;5069470;28;20045;-57
2022/06/24 12:03:09;;;;;;;0.68;0.68;;;26.50;86.40;;;;;;5051614;28;20037;-59
2022/06/24 12:05:46;;;;;;;0.47;0.47;;;26.40;87.40;;;;;;5058092;28;20056;-63
2022/06/24 12:08:14;;;;;;;0.43;0.32;;;26.50;87.90;;;;;;5051315;28;20492;-57
2022/06/24 12:10:51;;;;;;;0.52;0.52;;;26.50;88.20;;;;;;5057711;28;20090;-59
2022/06/24 12:13:32;;;;;;;0.40;0.40;;;26.60;88.70;;;;;;5047665;28;20072;-55
2022/06/24 12:16:00;;;;;;;2.53;1.13;;;26.60;88.70;;;;;;5048516;28;20041;-57
2022/06/24 12:18:29;;;;;;;3.45;1.50;;;26.70;88.90;;;;;;5052295;28;20063;-60
2022/06/24 12:21:06;;;;;;;0.30;0.30;;;26.70;88.80;;;;;;5047664;28;20457;-60
2022/06/24 12:23:34;;;;;;;0.40;0.40;;;26.80;89.10;;;;;;5048131;28;20413;-60
2022/06/24 12:26:12;;;;;;;0.20;0.20;;;26.80;89.80;;;;;;5046407;28;20044;-58
2022/06/24 12:28:40;;;;;;;0.63;0.63;;;26.80;89.50;;;;;;5050282;28;20068;-55
2022/06/24 12:31:10;;;;;;;1.55;1.00;;;26.90;89.70;;;;;;5049037;28;20064;-56
2022/06/24 12:33:46;;;;;;;0.73;0.73;;;26.90;89.70;;;;;;5074910;28;20037;-58
2022/06/24 12:36:16;;;;;;;1.17;0.60;;;26.90;89.80;;;;;;5047987;28;20116;-56
2022/06/24 12:39:05;;;;;;;3.72;1.75;;;26.90;89.90;;;;;;5047110;28;20519;-59
2022/06/24 12:41:46;;;;;;;0.32;0.32;;;26.90;90.00;;;;;;5061187;28;20055;-59
2022/06/24 12:44:14;;;;;;;14.90;1.85;;;26.90;90.00;;;;;;5051675;28;20048;-57
2022/06/24 12:52:35;;;;;;;0.57;0.57;;;26.90;90.10;;;;;;5063860;28;20057;-60
2022/06/24 12:55:05;;;;;;;0.43;0.43;;;26.90;90.10;;;;;;5057361;28;20056;-60
2022/06/24 12:57:32;;;;;;;1.25;0.55;;;27.00;90.20;;;;;;5060222;28;20056;-58
2022/06/24 13:00:03;;;;;;;0.38;0.38;;;27.10;90.70;;;;;;5051093;28;20492;-60
2022/06/24 13:02:31;;;;;;;0.73;0.40;;;27.10;91.10;;;;;;5052161;28;20067;-58
2022/06/24 13:05:02;;;;;;;0.20;0.20;;;27.10;91.00;;;;;;5048455;28;20048;-54
2022/06/24 13:07:35;;;;;;;0.98;0.98;;;27.10;91.10;;;;;;5050398;28;20045;-57
2022/06/24 13:10:04;;;;;;;0.22;0.22;;;27.20;91.40;;;;;;5049593;28;20385;-59
2022/06/24 13:12:33;;;;;;;0.60;0.60;;;27.20;91.40;;;;;;5060152;28;20088;-59
2022/06/24 13:15:05;;;;;;;0.50;0.50;;;27.20;91.60;;;;;;5052580;28;20381;-58
2022/06/24 13:17:37;;;;;;;6.50;0.73;;;27.20;91.50;;;;;;5051002;28;20491;-59
2022/06/24 13:20:08;;;;;;;0.70;0.70;;;27.20;85.40;;;;;;5054334;28;20045;-60
2022/06/24 13:22:36;;;;;;;2.28;1.35;;;27.20;84.50;;;;;;5047329;28;20428;-62
2022/06/24 13:25:05;;;;;;;0.20;0.20;;;27.20;84.30;;;;;;5053540;28;20071;-58